Nassauborg — PHDU — position and weather

sailwx.info

Track history (hours):
 
Tides and Currents Weather Stations Pressure Air Temp Water Temp Dewpoint Dewpoint Depression Visibility Wind Speed Wind Dir Waves Ship Positions

Nassauborg

Ship's website: http://www.wagenborg.com/index.cfm?pid=37&itemid=158&contentitemid=236

Last reported at 2014-Jul-30 03:07 UTC. Time now 2014-Jul-31 13:33 UTC.
Position N 59°54' E 019°31'.

Length 143 m; beam 22 m.

Type: Cargo ship. MMSI: 246430000.

Date/timePositionNaut miles runAvg speedWind from/ knotsBaromVisibWave heightAir tempDewpointWater temp
2014-Jul-30 03:07N 59°54' E 019°31'58 8.5
2014-Jul-29 20:18N 58°56' E 019°28'811.0
2014-Jul-29 19:33N 58°49' E 019°20'3411.1
2014-Jul-29 16:28N 58°19' E 018°46'1011.2
2014-Jul-29 15:33N 58°10' E 018°36'1110.9
2014-Jul-29 14:33N 58°01' E 018°26'1110.8
2014-Jul-29 13:33N 57°52' E 018°15'1110.8
2014-Jul-29 12:32N 57°42' E 018°05'1110.7
2014-Jul-29 11:33N 57°33' E 017°55'1110.6
2014-Jul-29 10:33N 57°24' E 017°45'1110.7
2014-Jul-29 09:33N 57°14' E 017°38'1110.6
2014-Jul-29 08:33N 57°04' E 017°31'1111.0
2014-Jul-29 07:33N 56°54' E 017°23'1111.1
2014-Jul-29 06:33N 56°44' E 017°16'1211.6
2014-Jul-29 05:33N 56°33' E 017°08'1211.5
2014-Jul-29 04:33N 56°22' E 017°00'1111.4
2014-Jul-29 03:33N 56°12' E 016°53'1110.9
2014-Jul-29 02:33N 56°03' E 016°41'1111.3
2014-Jul-29 01:33N 55°57' E 016°23'1111.4
2014-Jul-29 00:33N 55°52' E 016°06'1111.2
2014-Jul-28 23:33N 55°46' E 015°48'1111.3
2014-Jul-28 22:33N 55°41' E 015°31'1211.8
2014-Jul-28 21:33N 55°35' E 015°13'1211.7
2014-Jul-28 20:33N 55°29' E 014°55'1211.7
2014-Jul-28 19:33N 55°23' E 014°37'1111.5
2014-Jul-28 18:33N 55°14' E 014°24'1010.4
2014-Jul-28 17:33N 55°10' E 014°07'1111.3
2014-Jul-28 16:33N 55°12' E 013°48'1211.7
2014-Jul-28 15:33N 55°13' E 013°27'1111.4
2014-Jul-28 14:33N 55°14' E 013°07'1111.3
2014-Jul-28 13:33N 55°16' E 012°48'9 9.1
2014-Jul-28 12:33N 55°24' E 012°40'1211.6
2014-Jul-28 11:33N 55°35' E 012°42'1111.5
2014-Jul-28 10:33N 55°47' E 012°42'1111.2
2014-Jul-28 09:33N 55°58' E 012°40'1110.6
2014-Jul-28 08:33N 56°07' E 012°31'1111.1
2014-Jul-28 07:33N 56°18' E 012°25'1111.4
2014-Jul-28 06:33N 56°29' E 012°18'1211.7
2014-Jul-28 05:33N 56°40' E 012°11'1211.7
2014-Jul-28 04:32N 56°51' E 012°04'1311.6
2014-Jul-28 03:26N 57°03' E 011°57'1111.2
2014-Jul-28 02:29N 57°13' E 011°51'1011.1
2014-Jul-28 01:33N 57°21' E 011°38'1211.2
2014-Jul-28 00:31N 57°29' E 011°22'1111.3
2014-Jul-27 23:33N 57°36' E 011°07'1111.5
2014-Jul-27 22:33N 57°44' E 010°51'1110.7
2014-Jul-27 21:33N 57°46' E 010°32'1211.6
2014-Jul-27 20:33N 57°43' E 010°11'2311.6
2014-Jul-27 18:32N 57°32' E 009°32'18211.1
2014-Jul-27 02:13N 54°43' E 007°30'913.1
2014-Jul-27 01:33N 54°35' E 007°32'1312.9
2014-Jul-27 00:33N 54°22' E 007°34'1212.3
2014-Jul-26 23:33N 54°10' E 007°42'1111.1
2014-Jul-26 22:33N 54°04' E 007°58'1110.8
2014-Jul-26 21:33N 54°00' E 008°15'1211.8
2014-Jul-26 20:33N 53°58' E 008°35'1313.1
2014-Jul-26 19:33N 53°51' E 008°53'1514.4
2014-Jul-26 18:33N 53°52' E 009°17'1514.9
2014-Jul-26 17:33N 53°39' E 009°31'1413.6
2014-Jul-26 16:33N 53°33' E 009°51'4 3.6
2014-Jul-26 15:33N 53°31' E 009°56'0 0.0
2014-Jul-26 14:33N 53°31' E 009°56'0 0.0
2014-Jul-26 13:33N 53°31' E 009°56'0 0.0
2014-Jul-26 12:33N 53°31' E 009°56'0 0.0
2014-Jul-26 11:33N 53°31' E 009°56'0 0.0
2014-Jul-26 10:33N 53°31' E 009°56'0 0.0
2014-Jul-26 09:33N 53°31' E 009°56'0 0.0
2014-Jul-26 08:33N 53°31' E 009°56'0 0.0
2014-Jul-26 07:33N 53°31' E 009°56'0 0.0
2014-Jul-26 06:33N 53°31' E 009°56'0 0.0
2014-Jul-26 05:33N 53°31' E 009°56'0 0.0
2014-Jul-26 04:33N 53°31' E 009°56'0 0.0
2014-Jul-26 03:33N 53°31' E 009°56'0 0.0
2014-Jul-26 02:33N 53°31' E 009°56'0 0.0
2014-Jul-26 01:33N 53°31' E 009°56'0 0.0
2014-Jul-26 00:33N 53°31' E 009°56'0 0.0
2014-Jul-25 23:33N 53°31' E 009°56'0 0.0
2014-Jul-25 22:33N 53°31' E 009°56'0 0.0
2014-Jul-25 21:33N 53°31' E 009°56'0 0.0
2014-Jul-25 20:33N 53°31' E 009°56'0 0.0
2014-Jul-25 19:33N 53°31' E 009°56'0 0.0
2014-Jul-25 18:33N 53°31' E 009°56'0 0.0
2014-Jul-25 17:33N 53°31' E 009°56'0 0.0
2014-Jul-25 16:33N 53°31' E 009°56'0 0.0
2014-Jul-25 15:33N 53°31' E 009°56'0 0.0
2014-Jul-25 14:33N 53°31' E 009°56'0 0.0
2014-Jul-25 13:33N 53°31' E 009°56'0 0.0
2014-Jul-25 12:33N 53°31' E 009°56'0 0.0
2014-Jul-25 11:33N 53°31' E 009°56'0 0.0
2014-Jul-25 10:33N 53°31' E 009°56'6 5.7
2014-Jul-25 09:33N 53°33' E 009°47'1211.4
2014-Jul-25 08:32N 53°40' E 009°31'1110.9
2014-Jul-25 07:33N 53°49' E 009°22'9 9.3
2014-Jul-25 06:33N 53°53' E 009°08'9 8.8
2014-Jul-25 05:33N 53°50' E 008°53'8 8.0
2014-Jul-25 04:33N 53°54' E 008°41'9 8.9
2014-Jul-25 03:33N 53°59' E 008°28'1010.1
2014-Jul-25 02:33N 53°60' E 008°11'9 9.5
2014-Jul-25 01:33N 54°03' E 007°56'10 9.8
2014-Jul-25 00:33N 54°09' E 007°42'1010.3
2014-Jul-24 23:34N 54°18' E 007°35'1010.4
2014-Jul-24 22:34N 54°28' E 007°33'2020.3
2014-Jul-24 21:33N 54°49' E 007°29'1311.7
2014-Jul-24 20:26N 55°02' E 007°27'2711.7
2014-Jul-24 18:06N 55°29' E 007°22'14 8.1
2014-Jul-24 16:22N 55°43' E 007°23'5 6.0
2014-Jul-24 15:33N 55°47' E 007°26'10111.1
2014-Jul-24 06:28N 57°18' E 008°47'1111.7
2014-Jul-24 05:32N 57°25' E 009°03'1211.9
2014-Jul-24 04:33N 57°32' E 009°20'1211.7
2014-Jul-24 03:33N 57°39' E 009°38'1111.6
2014-Jul-24 02:33N 57°45' E 009°56'1211.9
2014-Jul-24 01:34N 57°47' E 010°18'1211.7
2014-Jul-24 00:34N 57°49' E 010°40'1111.3
2014-Jul-23 23:34N 57°42' E 010°57'1211.6
2014-Jul-23 22:33N 57°34' E 011°13'1212.1
2014-Jul-23 21:33N 57°25' E 011°27'1211.9
2014-Jul-23 20:32N 57°14' E 011°35'1212.0
2014-Jul-23 19:31N 57°02' E 011°42'1211.5
2014-Jul-23 18:31N 56°51' E 011°50'1010.0
2014-Jul-23 17:33N 56°42' E 011°50'1010.6
2014-Jul-23 16:33N 56°33' E 011°40'1110.7
2014-Jul-23 15:33N 56°23' E 011°30'1111.2
2014-Jul-23 14:33N 56°14' E 011°20'1411.5
2014-Jul-23 13:17N 56°02' E 011°06'1311.8
2014-Jul-23 12:09N 55°51' E 010°51'7010.5
2014-Jul-23 05:31N 54°41' E 010°56'1111.9
2014-Jul-23 04:34N 54°36' E 011°13'1111.5
2014-Jul-23 03:34N 54°31' E 011°31'1110.9
2014-Jul-23 02:34N 54°26' E 011°48'1111.2
2014-Jul-23 01:34N 54°27' E 012°08'1110.8
2014-Jul-23 00:34N 54°37' E 012°16'1211.5
2014-Jul-22 23:33N 54°43' E 012°32'1111.2
2014-Jul-22 22:33N 54°49' E 012°49'1110.8
2014-Jul-22 21:34N 54°52' E 013°06'1111.2
2014-Jul-22 20:34N 54°56' E 013°25'1111.2
2014-Jul-22 19:34N 55°00' E 013°43'1111.4
2014-Jul-22 18:34N 55°04' E 014°02'1111.2
2014-Jul-22 17:34N 55°12' E 014°15'1211.6
2014-Jul-22 16:33N 55°21' E 014°29'1111.3
2014-Jul-22 15:34N 55°28' E 014°44'1111.3
2014-Jul-22 14:34N 55°34' E 015°01'1211.5
2014-Jul-22 13:33N 55°40' E 015°18'1211.7
2014-Jul-22 12:33N 55°46' E 015°36'1211.8
2014-Jul-22 11:34N 55°53' E 015°54'1211.7
2014-Jul-22 10:34N 55°59' E 016°12'1511.7
2014-Jul-22 09:14N 56°07' E 016°35'1811.0
2014-Jul-22 07:34N 56°22' E 016°53'1211.6
2014-Jul-22 06:29N 56°34' E 017°01'1111.6
2014-Jul-22 05:33N 56°44' E 017°08'1211.9
2014-Jul-22 04:33N 56°55' E 017°16'1211.8
2014-Jul-22 03:33N 57°06' E 017°24'1211.8
2014-Jul-22 02:34N 57°17' E 017°32'1211.7
2014-Jul-22 01:33N 57°28' E 017°40'1211.5
2014-Jul-22 00:33N 57°38' E 017°51'1111.4
2014-Jul-21 23:34N 57°48' E 018°01'1211.7
2014-Jul-21 22:33N 57°58' E 018°12'1311.6
2014-Jul-21 21:27N 58°09' E 018°25'1111.8
2014-Jul-21 20:33N 58°18' E 018°35'311.9
2014-Jul-21 20:18N 58°21' E 018°38'911.9
2014-Jul-21 19:33N 58°28' E 018°46'1211.7
2014-Jul-21 18:33N 58°39' E 018°57'  
Track history (hours):
 
Tides and Currents Weather Stations Pressure Air Temp Water Temp Dewpoint Dewpoint Depression Visibility Wind Speed Wind Dir Waves Ship Positions

Nassauborg

Ship's website: http://www.wagenborg.com/index.cfm?pid=37&itemid=158&contentitemid=236

Last reported at 2014-Jul-30 03:07 UTC. Time now 2014-Jul-31 13:33 UTC.
Position N 59°54' E 019°31'.

Length 143 m; beam 22 m.

Type: Cargo ship. MMSI: 246430000.

Date/timePositionNaut miles runAvg speedWind from/ knotsBaromVisibWave heightAir tempDewpointWater temp
2014-Jul-30 03:07N 59°54' E 019°31'58 8.5
2014-Jul-29 20:18N 58°56' E 019°28'811.0
2014-Jul-29 19:33N 58°49' E 019°20'3411.1
2014-Jul-29 16:28N 58°19' E 018°46'1011.2
2014-Jul-29 15:33N 58°10' E 018°36'1110.9
2014-Jul-29 14:33N 58°01' E 018°26'1110.8
2014-Jul-29 13:33N 57°52' E 018°15'1110.8
2014-Jul-29 12:32N 57°42' E 018°05'1110.7
2014-Jul-29 11:33N 57°33' E 017°55'1110.6
2014-Jul-29 10:33N 57°24' E 017°45'1110.7
2014-Jul-29 09:33N 57°14' E 017°38'1110.6
2014-Jul-29 08:33N 57°04' E 017°31'1111.0
2014-Jul-29 07:33N 56°54' E 017°23'1111.1
2014-Jul-29 06:33N 56°44' E 017°16'1211.6
2014-Jul-29 05:33N 56°33' E 017°08'1211.5
2014-Jul-29 04:33N 56°22' E 017°00'1111.4
2014-Jul-29 03:33N 56°12' E 016°53'1110.9
2014-Jul-29 02:33N 56°03' E 016°41'1111.3
2014-Jul-29 01:33N 55°57' E 016°23'1111.4
2014-Jul-29 00:33N 55°52' E 016°06'1111.2
2014-Jul-28 23:33N 55°46' E 015°48'1111.3
2014-Jul-28 22:33N 55°41' E 015°31'1211.8
2014-Jul-28 21:33N 55°35' E 015°13'1211.7
2014-Jul-28 20:33N 55°29' E 014°55'1211.7
2014-Jul-28 19:33N 55°23' E 014°37'1111.5
2014-Jul-28 18:33N 55°14' E 014°24'1010.4
2014-Jul-28 17:33N 55°10' E 014°07'1111.3
2014-Jul-28 16:33N 55°12' E 013°48'1211.7
2014-Jul-28 15:33N 55°13' E 013°27'1111.4
2014-Jul-28 14:33N 55°14' E 013°07'1111.3
2014-Jul-28 13:33N 55°16' E 012°48'9 9.1
2014-Jul-28 12:33N 55°24' E 012°40'1211.6
2014-Jul-28 11:33N 55°35' E 012°42'1111.5
2014-Jul-28 10:33N 55°47' E 012°42'1111.2
2014-Jul-28 09:33N 55°58' E 012°40'1110.6
2014-Jul-28 08:33N 56°07' E 012°31'1111.1
2014-Jul-28 07:33N 56°18' E 012°25'1111.4
2014-Jul-28 06:33N 56°29' E 012°18'1211.7
2014-Jul-28 05:33N 56°40' E 012°11'1211.7
2014-Jul-28 04:32N 56°51' E 012°04'1311.6
2014-Jul-28 03:26N 57°03' E 011°57'1111.2
2014-Jul-28 02:29N 57°13' E 011°51'1011.1
2014-Jul-28 01:33N 57°21' E 011°38'1211.2
2014-Jul-28 00:31N 57°29' E 011°22'1111.3
2014-Jul-27 23:33N 57°36' E 011°07'1111.5
2014-Jul-27 22:33N 57°44' E 010°51'1110.7
2014-Jul-27 21:33N 57°46' E 010°32'1211.6
2014-Jul-27 20:33N 57°43' E 010°11'2311.6
2014-Jul-27 18:32N 57°32' E 009°32'18211.1
2014-Jul-27 02:13N 54°43' E 007°30'913.1
2014-Jul-27 01:33N 54°35' E 007°32'1312.9
2014-Jul-27 00:33N 54°22' E 007°34'1212.3
2014-Jul-26 23:33N 54°10' E 007°42'1111.1
2014-Jul-26 22:33N 54°04' E 007°58'1110.8
2014-Jul-26 21:33N 54°00' E 008°15'1211.8
2014-Jul-26 20:33N 53°58' E 008°35'1313.1
2014-Jul-26 19:33N 53°51' E 008°53'1514.4
2014-Jul-26 18:33N 53°52' E 009°17'1514.9
2014-Jul-26 17:33N 53°39' E 009°31'1413.6
2014-Jul-26 16:33N 53°33' E 009°51'4 3.6
2014-Jul-26 15:33N 53°31' E 009°56'0 0.0
2014-Jul-26 14:33N 53°31' E 009°56'0 0.0
2014-Jul-26 13:33N 53°31' E 009°56'0 0.0
2014-Jul-26 12:33N 53°31' E 009°56'0 0.0
2014-Jul-26 11:33N 53°31' E 009°56'0 0.0
2014-Jul-26 10:33N 53°31' E 009°56'0 0.0
2014-Jul-26 09:33N 53°31' E 009°56'0 0.0
2014-Jul-26 08:33N 53°31' E 009°56'0 0.0
2014-Jul-26 07:33N 53°31' E 009°56'0 0.0
2014-Jul-26 06:33N 53°31' E 009°56'0 0.0
2014-Jul-26 05:33N 53°31' E 009°56'0 0.0
2014-Jul-26 04:33N 53°31' E 009°56'0 0.0
2014-Jul-26 03:33N 53°31' E 009°56'0 0.0
2014-Jul-26 02:33N 53°31' E 009°56'0 0.0
2014-Jul-26 01:33N 53°31' E 009°56'0 0.0
2014-Jul-26 00:33N 53°31' E 009°56'0 0.0
2014-Jul-25 23:33N 53°31' E 009°56'0 0.0
2014-Jul-25 22:33N 53°31' E 009°56'0 0.0
2014-Jul-25 21:33N 53°31' E 009°56'0 0.0
2014-Jul-25 20:33N 53°31' E 009°56'0 0.0
2014-Jul-25 19:33N 53°31' E 009°56'0 0.0
2014-Jul-25 18:33N 53°31' E 009°56'0 0.0
2014-Jul-25 17:33N 53°31' E 009°56'0 0.0
2014-Jul-25 16:33N 53°31' E 009°56'0 0.0
2014-Jul-25 15:33N 53°31' E 009°56'0 0.0
2014-Jul-25 14:33N 53°31' E 009°56'0 0.0
2014-Jul-25 13:33N 53°31' E 009°56'0 0.0
2014-Jul-25 12:33N 53°31' E 009°56'0 0.0
2014-Jul-25 11:33N 53°31' E 009°56'0 0.0
2014-Jul-25 10:33N 53°31' E 009°56'6 5.7
2014-Jul-25 09:33N 53°33' E 009°47'1211.4
2014-Jul-25 08:32N 53°40' E 009°31'1110.9
2014-Jul-25 07:33N 53°49' E 009°22'9 9.3
2014-Jul-25 06:33N 53°53' E 009°08'9 8.8
2014-Jul-25 05:33N 53°50' E 008°53'8 8.0
2014-Jul-25 04:33N 53°54' E 008°41'9 8.9
2014-Jul-25 03:33N 53°59' E 008°28'1010.1
2014-Jul-25 02:33N 53°60' E 008°11'9 9.5
2014-Jul-25 01:33N 54°03' E 007°56'10 9.8
2014-Jul-25 00:33N 54°09' E 007°42'1010.3
2014-Jul-24 23:34N 54°18' E 007°35'1010.4
2014-Jul-24 22:34N 54°28' E 007°33'2020.3
2014-Jul-24 21:33N 54°49' E 007°29'1311.7
2014-Jul-24 20:26N 55°02' E 007°27'2711.7
2014-Jul-24 18:06N 55°29' E 007°22'14 8.1
2014-Jul-24 16:22N 55°43' E 007°23'5 6.0
2014-Jul-24 15:33N 55°47' E 007°26'10111.1
2014-Jul-24 06:28N 57°18' E 008°47'1111.7
2014-Jul-24 05:32N 57°25' E 009°03'1211.9
2014-Jul-24 04:33N 57°32' E 009°20'1211.7
2014-Jul-24 03:33N 57°39' E 009°38'1111.6
2014-Jul-24 02:33N 57°45' E 009°56'1211.9
2014-Jul-24 01:34N 57°47' E 010°18'1211.7
2014-Jul-24 00:34N 57°49' E 010°40'1111.3
2014-Jul-23 23:34N 57°42' E 010°57'1211.6
2014-Jul-23 22:33N 57°34' E 011°13'1212.1
2014-Jul-23 21:33N 57°25' E 011°27'1211.9
2014-Jul-23 20:32N 57°14' E 011°35'1212.0
2014-Jul-23 19:31N 57°02' E 011°42'1211.5
2014-Jul-23 18:31N 56°51' E 011°50'1010.0
2014-Jul-23 17:33N 56°42' E 011°50'1010.6
2014-Jul-23 16:33N 56°33' E 011°40'1110.7
2014-Jul-23 15:33N 56°23' E 011°30'1111.2
2014-Jul-23 14:33N 56°14' E 011°20'1411.5
2014-Jul-23 13:17N 56°02' E 011°06'1311.8
2014-Jul-23 12:09N 55°51' E 010°51'7010.5
2014-Jul-23 05:31N 54°41' E 010°56'1111.9
2014-Jul-23 04:34N 54°36' E 011°13'1111.5
2014-Jul-23 03:34N 54°31' E 011°31'1110.9
2014-Jul-23 02:34N 54°26' E 011°48'1111.2
2014-Jul-23 01:34N 54°27' E 012°08'1110.8
2014-Jul-23 00:34N 54°37' E 012°16'1211.5
2014-Jul-22 23:33N 54°43' E 012°32'1111.2
2014-Jul-22 22:33N 54°49' E 012°49'1110.8
2014-Jul-22 21:34N 54°52' E 013°06'1111.2
2014-Jul-22 20:34N 54°56' E 013°25'1111.2
2014-Jul-22 19:34N 55°00' E 013°43'1111.4
2014-Jul-22 18:34N 55°04' E 014°02'1111.2
2014-Jul-22 17:34N 55°12' E 014°15'1211.6
2014-Jul-22 16:33N 55°21' E 014°29'1111.3
2014-Jul-22 15:34N 55°28' E 014°44'1111.3
2014-Jul-22 14:34N 55°34' E 015°01'1211.5
2014-Jul-22 13:33N 55°40' E 015°18'1211.7
2014-Jul-22 12:33N 55°46' E 015°36'1211.8
2014-Jul-22 11:34N 55°53' E 015°54'1211.7
2014-Jul-22 10:34N 55°59' E 016°12'1511.7
2014-Jul-22 09:14N 56°07' E 016°35'1811.0
2014-Jul-22 07:34N 56°22' E 016°53'1211.6
2014-Jul-22 06:29N 56°34' E 017°01'1111.6
2014-Jul-22 05:33N 56°44' E 017°08'1211.9
2014-Jul-22 04:33N 56°55' E 017°16'1211.8
2014-Jul-22 03:33N 57°06' E 017°24'1211.8
2014-Jul-22 02:34N 57°17' E 017°32'1211.7
2014-Jul-22 01:33N 57°28' E 017°40'1211.5
2014-Jul-22 00:33N 57°38' E 017°51'1111.4
2014-Jul-21 23:34N 57°48' E 018°01'1211.7
2014-Jul-21 22:33N 57°58' E 018°12'1311.6
2014-Jul-21 21:27N 58°09' E 018°25'1111.8
2014-Jul-21 20:33N 58°18' E 018°35'311.9
2014-Jul-21 20:18N 58°21' E 018°38'911.9
2014-Jul-21 19:33N 58°28' E 018°46'1211.7
2014-Jul-21 18:33N 58°39' E 018°57'  

Dump ship's entire track history